• Join FlightAware (Why Join?)
  • Login
  • US Flag 
10:33PM EDT


 

Airport Tracker/Info


-or-


 

Live Flight TrackerFlight Track Log ✈ AFL150 ✈ 26-Nov-2013 ✈ UUEE / SVO - MUHA / HAV

Flight Track Log - Related Links

Times and Time Zones

All times are in EST time to prevent confusion due to time zone crossing. See the AFL150 flight status page for this flight to view local times or setup timezone preferences in your user account.

Time Position Orientation Groundspeed Altitude Reporting Facility
EST Latitude Longitude Course Direction KTS MPH feet Rate Location/Type
05:13AM 56.0971 37.1625 317° Northwest  Level Estimated
05:14AM 56.1688 36.9889 314° West  Level Estimated
05:15AM 56.2403 36.8146 315° West  Level Estimated
05:16AM 56.3492 36.7220 335° Northwest  Level FlightAware Approximate
05:17AM 56.4203 36.5464 312° West  Level Estimated
05:18AM 56.5275 36.4469 333° Northwest  Level FlightAware Approximate
05:19AM 56.5982 36.2699 312° West  Level Estimated
05:20AM 56.6686 36.0922 314° West  Level Estimated
05:21AM 56.7693 35.9718 327° Northwest  Level FlightAware Approximate
05:22AM 56.8393 35.7927 314° West  Level Estimated
05:23AM 56.9373 35.6645 325° Northwest  Level FlightAware Approximate
05:24AM 57.0069 35.4841 313° West  Level Estimated
05:25AM 57.0762 35.3030 311° West  Level Estimated
05:26AM 57.1778 35.1839 328° Northwest  Level FlightAware Approximate
05:27AM 57.2466 35.0014 315° West  Level Estimated
05:28AM 57.3152 34.8182 311° West  Level Estimated
05:29AM 57.3835 34.6343 313° West  Level Estimated
05:30AM 57.4882 34.5237 330° Northwest  Level FlightAware Approximate
05:31AM 57.5561 34.3384 312° West  Level Estimated
05:32AM 57.6377 34.1730 313° West  Level FlightAware Approximate
05:33AM 57.7190 34.0069 313° West  Level FlightAware Approximate
05:34AM 57.8002 33.8400 312° West  Level FlightAware Approximate
05:35AM 57.8811 33.6724 312° West  Level FlightAware Approximate
05:36AM 57.9618 33.5040 312° West  Level FlightAware Approximate
05:37AM 58.0423 33.3349 312° West  Level FlightAware Approximate
05:38AM 58.1225 33.1650 312° West  Level FlightAware Approximate
05:39AM 58.2025 32.9943 312° West  Level FlightAware Approximate
05:40AM 58.2823 32.8229 312° West  Level FlightAware Approximate
05:41AM 58.3619 32.6507 311° West  Level FlightAware Approximate
05:42AM 58.4412 32.4777 311° West  Level FlightAware Approximate
05:43AM 58.5203 32.3039 311° West  Level FlightAware Approximate
05:44AM 58.5992 32.1293 311° West  Level FlightAware Approximate
05:45AM 58.6778 31.9540 311° West  Level FlightAware Approximate
05:46AM 58.7562 31.7779 311° West  Level FlightAware Approximate
05:47AM 58.8343 31.6010 311° West  Level FlightAware Approximate
05:48AM 58.9122 31.4232 310° West  Level FlightAware Approximate
05:49AM 58.9898 31.2447 310° West  Level FlightAware Approximate
05:50AM 59.0672 31.0654 310° West  Level FlightAware Approximate
05:51AM 59.1444 30.8853 310° West  Level FlightAware Approximate
05:52AM 59.2213 30.7043 310° West  Level FlightAware Approximate
05:53AM 59.2980 30.5225 310° West  Level FlightAware Approximate
05:54AM 59.3744 30.3399 309° West  Level FlightAware Approximate
05:55AM 59.4505 30.1565 309° West  Level FlightAware Approximate
05:56AM 59.5264 29.9723 309° West  Level FlightAware Approximate
05:57AM 59.6020 29.7872 309° West  Level FlightAware Approximate
05:58AM 59.6774 29.6013 309° West  Level FlightAware Approximate
05:59AM 59.7525 29.4146 309° West  Level FlightAware Approximate
06:00AM 59.8273 29.2270 308° West  Level FlightAware Approximate
06:01AM 59.9019 29.0386 308° West  Level FlightAware Approximate
06:02AM 59.9762 28.8493 308° West  Level FlightAware Approximate
06:03AM 60.0502 28.6592 308° West  Level FlightAware Approximate
06:03AM 56.7386 26.9759 308° West 473 544 34,000  Level FlightAware ADS-B
06:04AM 60.1239 28.4682 308° West  Level FlightAware Approximate
06:05AM 60.1974 28.2764 308° West  Level FlightAware Approximate
06:06AM 56.8621 26.5560 298° West  Level Estimated
06:07AM 56.9186 26.3612 298° West  Level Estimated
06:08AM 56.9748 26.1659 298° West  Level Estimated
06:09AM 57.0307 25.9700 298° West  Level Estimated
06:10AM 57.0863 25.7735 298° West  Level Estimated
06:10AM 56.6960 25.5155 298° West 465 535 34,000  Level FlightAware ADS-B
06:11AM 56.6885 25.3056 266° West 464 534 34,000  Level FlightAware ADS-B
06:12AM 56.6785 25.0427 266° West 463 533 34,000  Level FlightAware ADS-B
06:13AM 56.6678 24.7725 266° West 465 535 34,000  Level FlightAware ADS-B
06:14AM 56.6587 24.5537 266° West 470 541 34,000  Level FlightAware ADS-B
06:14AM 56.6525 24.4108 266° West 470 541 34,000  Level FlightAware ADS-B
06:15AM 56.6494 24.3414 265° West 469 540 34,000  Level FlightAware ADS-B
06:15AM 56.6436 24.2112 265° West 469 540 34,000  Level FlightAware ADS-B (EPSY / SZY)
06:16AM 56.6383 24.0944 265° West 469 540 34,000  Level FlightAware ADS-B (EPSY / SZY)
06:16AM 56.6307 23.9332 265° West 470 541 34,000  Level FlightAware ADS-B (EPSY / SZY)
06:17AM 56.6248 23.8121 265° West 470 541 34,000  Level FlightAware ADS-B (EPSY / SZY)
06:17AM 56.6191 23.6978 265° West 468 539 34,000  Level FlightAware ADS-B (EPSY / SZY)
06:18AM 56.6112 23.5416 265° West 467 537 34,000  Level FlightAware ADS-B (EPSY / SZY)
06:19AM 56.6030 23.3824 265° West 467 537 34,000  Level FlightAware ADS-B (EPSY / SZY)
06:19AM 56.5965 23.2589 265° West 468 539 34,000  Level FlightAware ADS-B (EPSY / SZY)
06:20AM 56.5903 23.1445 264° West 469 540 34,000  Level FlightAware ADS-B (EPSY / SZY)
06:20AM 56.5816 22.9856 264° West 471 542 34,000  Level FlightAware ADS-B (EPSY / SZY)
06:21AM 56.5738 22.8462 264° West 471 542 34,000  Level FlightAware ADS-B (EPSY / SZY)
06:22AM 56.5645 22.6852 264° West 474 545 34,000  Level FlightAware ADS-B (EPSY / SZY)
06:22AM 56.5575 22.5651 264° West 475 547 34,000  Level FlightAware ADS-B
06:23AM 56.5477 22.4018 264° West 476 548 34,000  Level FlightAware ADS-B
06:23AM 56.5394 22.2630 264° West 478 550 34,000  Level FlightAware ADS-B (EPSY / SZY)
06:24AM 56.5264 22.0562 264° West 481 554 34,000  Level FlightAware ADS-B (EPSY / SZY)
06:25AM 56.5186 21.9317 264° West 482 555 34,000  Level FlightAware ADS-B (EPSY / SZY)
06:25AM 56.5112 21.8170 263° West 483 556 34,000  Level FlightAware ADS-B (EPSY / SZY)
06:26AM 56.5028 21.6886 263° West 485 558 34,000  Level FlightAware ADS-B (EPSY / SZY)
06:27AM 56.4901 21.4986 263° West 486 559 34,000  Level FlightAware ADS-B (EPSY / SZY)
06:27AM 56.4817 21.3775 263° West 487 560 34,000  Level FlightAware ADS-B (EPSY / SZY)
06:28AM 56.4700 21.2083 263° West 486 559 34,000  Level FlightAware ADS-B (EPSY / SZY)
06:28AM 56.4615 21.0892 263° West 486 559 34,000  Level FlightAware ADS-B (EPSY / SZY)
06:29AM 56.4485 20.9074 263° West 486 559 34,000  Level FlightAware ADS-B (EPSY / SZY)
06:30AM 56.4350 20.7260 262° West 486 559 34,000  Level FlightAware ADS-B (EPSY / SZY)
06:30AM 56.4253 20.5965 262° West 488 562 34,000  Level FlightAware ADS-B (EPSY / SZY)
06:31AM 56.4162 20.4764 262° West 489 563 34,000  Level FlightAware ADS-B (EPSY / SZY)
06:32AM 56.4020 20.2899 262° West 489 563 34,000  Level FlightAware ADS-B (EPSY / SZY)
06:32AM 56.3929 20.1724 262° West 488 562 34,000  Level FlightAware ADS-B (EPSY / SZY)
06:33AM 56.3831 20.0497 262° West 488 562 34,000  Level FlightAware ADS-B (EPSY / SZY)
06:33AM 56.3705 19.8957 262° West 488 562 34,000  Level FlightAware ADS-B (EPSY / SZY)
06:34AM 56.3595 19.7604 262° West 488 562 34,000  Level FlightAware ADS-B (EPSY / SZY)
06:36AM 56.4352 19.4323 293° West  Level Estimated
06:37AM 56.4811 19.2308 293° West  Level Estimated
06:38AM 56.5268 19.0288 292° West  Level Estimated
06:39AM 56.5720 18.8263 292° West  Level Estimated
06:40AM 56.6170 18.6234 292° West  Level Estimated
06:41AM 56.6616 18.4199 292° West  Level Estimated
06:42AM 56.7059 18.2160 292° West  Level Estimated
06:43AM 56.7499 18.0116 291° West  Level Estimated
06:44AM 56.7935 17.8067 291° West  Level Estimated
06:45AM 56.8368 17.6014 291° West  Level Estimated
06:46AM 56.8798 17.3955 291° West  Level Estimated
06:47AM 56.9224 17.1892 291° West  Level Estimated
06:48AM 56.9646 16.9825 291° West  Level Estimated
06:49AM 57.0066 16.7752 290° West  Level Estimated
06:50AM 57.0482 16.5675 290° West  Level Estimated
06:51AM 57.0894 16.3594 290° West  Level Estimated
06:52AM 57.1303 16.1507 290° West  Level Estimated
06:53AM 57.1709 15.9416 290° West  Level Estimated
06:54AM 57.2111 15.7321 290° West  Level Estimated
06:55AM 57.2509 15.5221 289° West  Level Estimated
06:56AM 57.2904 15.3116 289° West  Level Estimated
06:57AM 57.3296 15.1007 289° West  Level Estimated
06:58AM 57.3684 14.8894 289° West  Level Estimated
06:59AM 57.4068 14.6776 289° West  Level Estimated
07:00AM 57.4449 14.4653 289° West  Level Estimated
07:01AM 57.4826 14.2526 288° West  Level Estimated
07:02AM 57.5200 14.0395 288° West  Level Estimated
07:03AM 57.5570 13.8260 288° West  Level Estimated
07:04AM 57.5937 13.6120 288° West  Level Estimated
07:05AM 57.6299 13.3975 288° West  Level Estimated
07:06AM 57.6659 13.1827 287° West  Level Estimated
07:07AM 57.7014 12.9674 287° West  Level Estimated
07:08AM 57.7366 12.7517 287° West  Level Estimated
07:09AM 57.7714 12.5356 287° West  Level Estimated
07:10AM 57.8059 12.3191 287° West  Level Estimated
07:11AM 57.8400 12.1022 287° West  Level Estimated
07:12AM 57.8737 11.8848 286° West  Level Estimated
07:13AM 57.9070 11.6671 286° West  Level Estimated
07:14AM 57.9400 11.4489 286° West  Level Estimated
07:15AM 57.9726 11.2304 286° West  Level Estimated
07:16AM 58.0048 11.0115 286° West  Level Estimated
07:17AM 58.0367 10.7921 285° West  Level Estimated
07:18AM 58.0681 10.5724 285° West  Level Estimated
07:19AM 58.0992 10.3523 285° West  Level Estimated
07:20AM 58.1299 10.1318 285° West  Level Estimated
07:21AM 58.1603 9.9109 285° West  Level Estimated
07:22AM 58.1902 9.6897 284° West  Level Estimated
07:23AM 58.2198 9.4681 284° West  Level Estimated
07:24AM 58.2490 9.2461 284° West  Level Estimated
07:25AM 58.2777 9.0237 284° West  Level Estimated
07:26AM 58.3061 8.8010 284° West  Level Estimated
07:27AM 58.3342 8.5779 284° West  Level Estimated
07:28AM 58.3618 8.3545 283° West  Level Estimated
07:29AM 58.3890 8.1308 283° West  Level Estimated
07:30AM 58.4159 7.9067 283° West  Level Estimated
07:31AM 58.4423 7.6822 283° West  Level Estimated
07:32AM 58.4684 7.4575 283° West  Level Estimated
07:33AM 58.4941 7.2323 282° West  Level Estimated
07:33AM 56.0545 5.5076 282° West 1 1 34,000  Level FlightAware UK
07:34AM 58.5193 7.0069 282° West  Level Estimated
07:34AM 56.0438 5.2654 266° West 1 1 34,000  Level FlightAware UK
07:36AM 56.0237 4.9598 263° West 458 527 34,000  Level FlightAware UK
07:37AM 56.0040 4.6782 263° West 458 527 34,000  Level FlightAware UK
07:38AM 55.9892 4.4660 263° West 456 525 34,000  Level FlightAware UK
07:38AM 55.9806 4.3482 263° West 456 525 34,000  Level FlightAware UK
07:39AM 55.9820 4.2893 266° West 467 537 34,000  Level FlightAware ADS-B (EGNT / NCL)
07:39AM 55.9819 4.2329 271° West 458 527 34,000  Level FlightAware UK
07:39AM 55.9768 4.1134 266° West 460 529 34,000  Level FlightAware UK
07:40AM 55.9673 3.9007 266° West 462 532 34,000  Level FlightAware UK
07:41AM 55.9606 3.7595 265° West 460 529 34,000  Level FlightAware UK
07:41AM 55.9592 3.7407 265° West 479 551 34,000  Level FlightAware ADS-B (EGNT / NCL)
07:41AM 55.9536 3.6182 265° West 458 527 34,000  Level FlightAware UK
07:42AM 55.9477 3.5006 265° West 458 527 34,000  Level FlightAware UK
07:43AM 55.9404 3.3591 265° West 460 529 34,000  Level FlightAware UK
07:43AM 55.9343 3.2411 265° West 460 529 34,000  Level FlightAware UK
07:44AM 55.9279 3.1229 265° West 460 529 34,000  Level FlightAware UK
07:44AM 55.9177 2.9341 265° West 458 527 34,000  Level FlightAware UK
07:45AM 55.9112 2.8154 264° West 458 527 34,000  Level FlightAware UK
07:45AM 55.9035 2.6737 265° West 458 527 34,000  Level FlightAware UK
07:46AM 55.8966 2.5550 264° West 456 525 34,000  Level FlightAware UK
07:46AM 55.8895 2.4361 264° West 456 525 34,000  Level FlightAware UK
07:47AM 55.8872 2.3172 268° West 458 527 34,000  Level FlightAware UK
07:47AM 55.9104 2.7988 268° West 484 557 34,000  Level FlightAware ADS-B (EGNT / NCL)
07:48AM 55.8939 2.0127 268° West 462 532 34,000  Level FlightAware UK
07:49AM 55.8968 1.8488 272° West 462 532 34,000  Level FlightAware UK
07:49AM 55.8984 1.7807 272° West 476 548 34,000  Level FlightAware ADS-B (EGPD / ABZ)
07:50AM 55.9011 1.6282 272° West 476 548 34,000  Level FlightAware ADS-B (EGPD / ABZ)
07:51AM 55.9037 1.4776 272° West 475 547 34,000  Level FlightAware ADS-B (EGNT / NCL)
07:51AM 55.9054 1.3686 272° West 474 545 34,000  Level FlightAware ADS-B (EGNT / NCL)
07:52AM 55.9073 1.2342 272° West 473 544 34,000  Level FlightAware ADS-B (EGNT / NCL)
07:52AM 55.9082 1.1672 271° West 472 543 34,000  Level FlightAware ADS-B (EGPD / ABZ)
07:53AM 55.9103 1.0028 271° West 471 542 34,000  Level FlightAware ADS-B (EGPD / ABZ)
07:53AM 55.9107 0.9671 271° West 471 542 34,000  Level FlightAware ADS-B (EGPD / ABZ)
07:53AM 55.9116 0.8980 271° West 470 541 34,000  Level FlightAware ADS-B (EGNT / NCL)
07:53AM 55.9125 0.8067 271° West 469 540 34,000  Level FlightAware ADS-B (EGNT / NCL)
07:54AM 55.9133 0.7336 271° West 469 540 34,000  Level FlightAware ADS-B (EGNT / NCL)
07:54AM 55.9146 0.5964 271° West 469 540 34,000  Level FlightAware ADS-B (EGNT / NCL)
07:55AM 55.9153 0.5217 271° West 469 540 34,000  Level FlightAware ADS-B (EGPD / ABZ)
07:55AM 55.9157 0.4813 271° West 469 540 34,000  Level FlightAware ADS-B (EGPD / ABZ)
07:55AM 55.9171 0.3327 271° West 469 540 34,000  Level FlightAware ADS-B (EGNT / NCL)
07:56AM 55.9180 0.2183 271° West 469 540 34,000  Level FlightAware ADS-B
07:56AM 55.9187 0.1219 271° West 471 542 34,000  Level FlightAware ADS-B (EGNT / NCL)
07:57AM 55.9197 -0.0184 271° West 471 542 34,000  Level FlightAware ADS-B (EGNT / NCL)
07:57AM 55.9165 -0.1165 267° West 485 558 34,000  Level FlightAware ADS-B (EGNT / NCL)
07:58AM 55.9111 -0.1693 260° West 486 559 34,000  Level FlightAware ADS-B
07:58AM 55.8973 -0.2907 259° West 487 560 34,000  Level FlightAware ADS-B (EGPD / ABZ)
07:59AM 55.8835 -0.4124 259° West 487 560 34,000  Level FlightAware ADS-B (EGNT / NCL)
07:59AM 55.8715 -0.5195 259° West 486 559 34,000  Level FlightAware ADS-B (EGNT / NCL)
08:00AM 55.8637 -0.5885 259° West 486 559 34,000  Level FlightAware ADS-B (EGNT / NCL)
08:00AM 55.8437 -0.7678 259° West 486 559 34,000  Level FlightAware ADS-B (EGPD / ABZ)
08:01AM 55.8303 -0.8849 259° West 485 558 34,000  Level FlightAware ADS-B (EGPD / ABZ)
08:01AM 55.8167 -1.0028 258° West 484 557 34,000  Level FlightAware ADS-B
08:02AM 55.7991 -1.1540 258° West 483 556 34,000  Level FlightAware ADS-B (EGNT / NCL)
08:02AM 55.7817 -1.3032 258° West 482 555 34,000  Level FlightAware ADS-B (EGPD / ABZ)
08:03AM 55.7680 -1.4176 258° West 482 555 34,000  Level FlightAware ADS-B (EGPD / ABZ)
08:03AM 55.7532 -1.5410 258° West 483 556 34,000  Level FlightAware ADS-B (EGNT / NCL)
08:04AM 55.7388 -1.6595 258° West 482 555 34,000  Level FlightAware ADS-B
08:04AM 55.7336 -1.6931 255° West 486 559 34,000  Level FlightAware ADS-B
08:04AM 55.7245 -1.7374 250° West 491 565 34,000  Level FlightAware ADS-B
08:04AM 55.7189 -1.7595 246° West 499 574 34,000  Level FlightAware ADS-B
08:05AM 55.7094 -1.7933 244° Southwest 501 577 34,000  Level FlightAware ADS-B
08:05AM 55.6963 -1.8402 244° Southwest 497 572 34,000  Level FlightAware ADS-B
08:05AM 55.6837 -1.8856 244° Southwest 498 573 34,000  Level FlightAware ADS-B
08:05AM 55.6757 -1.9147 244° Southwest 497 572 34,000  Level FlightAware ADS-B
08:06AM 55.6441 -2.0291 244° Southwest 502 578 34,000  Level FlightAware ADS-B (EGNT / NCL)
08:06AM 55.6134 -2.1432 245° Southwest 500 575 34,000  Level FlightAware ADS-B (EGNT / NCL)
08:07AM 55.5831 -2.2563 245° Southwest 497 572 34,000  Level FlightAware ADS-B (EGPD / ABZ)
08:07AM 55.5518 -2.3718 244° Southwest 498 573 34,000  Level FlightAware ADS-B
08:07AM 55.5351 -2.4330 244° Southwest 499 574 34,000  Level FlightAware ADS-B
08:08AM 55.5129 -2.5146 244° Southwest 500 575 34,000  Level FlightAware ADS-B
08:08AM 55.5060 -2.5398 244° Southwest 500 575 34,000  Level FlightAware ADS-B
08:08AM 55.4956 -2.5775 244° Southwest 500 575 34,000  Level FlightAware ADS-B
08:08AM 55.4865 -2.6104 244° Southwest 500 575 34,000  Level FlightAware ADS-B
08:09AM 55.4538 -2.7291 244° Southwest 505 581 34,000  Level FlightAware ADS-B (EGNT / NCL)
08:09AM 55.4236 -2.8382 244° Southwest 504 580 34,000  Level FlightAware ADS-B (EGNT / NCL)
08:10AM 55.3896 -2.9602 244° Southwest 504 580 34,000  Level FlightAware ADS-B (EGGP / LPL)
08:10AM 55.3631 -3.0548 244° Southwest 504 580 34,000  Level FlightAware ADS-B
08:11AM 55.3283 -3.1787 244° Southwest 503 579 34,000  Level FlightAware ADS-B
08:12AM 55.2959 -3.2931 244° Southwest 504 580 34,000  Level FlightAware ADS-B
08:12AM 55.2552 -3.4365 244° Southwest 502 578 34,000  Level FlightAware ADS-B
08:13AM 55.2138 -3.5811 243° Southwest 499 574 34,000  Level FlightAware ADS-B
08:13AM 55.1805 -3.6970 243° Southwest 499 574 34,000  Level FlightAware ADS-B
08:14AM 55.1364 -3.8494 243° Southwest 460 529 34,000  Level FlightAware UK
08:14AM 55.1366 -3.8487 243° Southwest 496 571 34,000  Level FlightAware ADS-B
08:15AM 55.1063 -3.9527 243° Southwest 495 570 34,000  Level FlightAware ADS-B
08:15AM 55.0732 -4.0659 243° Southwest 493 567 34,000  Level FlightAware ADS-B
08:16AM 55.0372 -4.1886 243° Southwest 456 525 34,000  Level FlightAware UK
08:16AM 55.0329 -4.2033 243° Southwest 493 567 34,000  Level FlightAware ADS-B
08:16AM 54.9999 -4.3153 243° Southwest 494 568 34,000  Level FlightAware ADS-B
08:17AM 54.9668 -4.4264 243° Southwest 493 567 34,000  Level FlightAware ADS-B
08:17AM 54.9343 -4.5356 243° Southwest 492 566 34,000  Level FlightAware ADS-B
08:18AM 54.8909 -4.6803 243° Southwest 492 566 34,000  Level FlightAware ADS-B
08:18AM 54.8804 -4.7154 242° Southwest 492 566 34,000  Level FlightAware ADS-B
08:19AM 54.8462 -4.8285 242° Southwest 493 567 34,000  Level FlightAware ADS-B (EGGP / LPL)
08:19AM 54.8094 -4.9498 242° Southwest 493 567 34,000  Level FlightAware ADS-B
08:20AM 54.7764 -5.0581 242° Southwest 490 564 34,000  Level FlightAware ADS-B
08:20AM 54.7414 -5.1723 242° Southwest 489 563 34,000  Level FlightAware ADS-B
08:21AM 54.7105 -5.2726 242° Southwest 488 562 34,000  Level FlightAware ADS-B
08:21AM 54.6769 -5.3815 242° Southwest 487 560 34,000  Level FlightAware ADS-B
08:22AM 54.6454 -5.4830 242° Southwest 488 562 34,000  Level FlightAware ADS-B
08:22AM 54.6352 -5.5157 242° Southwest 493 567 34,000  Level FlightAware ADS-B
08:22AM 54.6183 -5.5699 242° Southwest 493 567 34,000  Level FlightAware ADS-B
08:23AM 54.5702 -5.7236 242° Southwest 489 563 34,000  Level FlightAware ADS-B
08:23AM 54.5372 -5.8284 242° Southwest 488 562 34,000  Level FlightAware ADS-B
08:24AM 54.4984 -5.9510 241° Southwest 491 565 34,000  Level FlightAware ADS-B
08:25AM 54.4677 -6.0479 241° Southwest 488 562 34,000  Level FlightAware ADS-B
08:25AM 54.4350 -6.1502 241° Southwest 489 563 34,000  Level FlightAware ADS-B
08:25AM 54.4098 -6.2288 241° Southwest 493 567 34,000  Level FlightAware ADS-B
08:26AM 54.3959 -6.2722 241° Southwest 493 567 34,000  Level FlightAware ADS-B
08:26AM 54.3853 -6.3050 241° Southwest 492 566 34,000  Level FlightAware ADS-B (EIDW / DUB)
08:27AM 54.3244 -6.4935 241° Southwest 488 562 34,000  Level FlightAware ADS-B
08:27AM 54.2866 -6.6100 241° Southwest 492 566 34,000  Level FlightAware ADS-B (EIDW / DUB)
08:28AM 54.2530 -6.7128 241° Southwest 492 566 34,000  Level FlightAware ADS-B (EIDW / DUB)
08:28AM 54.2199 -6.8138 241° Southwest 493 567 34,000  Level FlightAware ADS-B (EIDW / DUB)
08:29AM 54.1859 -6.9100 239° Southwest 497 572 34,000  Level FlightAware ADS-B (EIDW / DUB)
08:29AM 54.1414 -7.0092 233° Southwest 498 573 34,000  Level FlightAware ADS-B (EIDW / DUB)
08:30AM 54.1028 -7.0995 234° Southwest 497 572 34,000  Level FlightAware ADS-B (EIDW / DUB)
08:30AM 54.0601 -7.1987 234° Southwest 496 571 34,000  Level FlightAware ADS-B
08:31AM 54.0144 -7.3022 233° Southwest 496 571 34,000  Level FlightAware ADS-B
08:31AM 53.9718 -7.3979 233° Southwest 495 570 34,000  Level FlightAware ADS-B
08:32AM 53.9248 -7.5024 233° Southwest 495 570 34,000  Level FlightAware ADS-B
08:32AM 53.8831 -7.5950 233° Southwest 497 572 34,000  Level FlightAware ADS-B
08:33AM 53.8338 -7.7040 233° Southwest 497 572 34,000  Level FlightAware ADS-B
08:34AM 53.7793 -7.8241 233° Southwest 498 573 34,000  Level FlightAware ADS-B
08:34AM 53.7309 -7.9302 232° Southwest 496 571 34,000  Level FlightAware ADS-B
08:35AM 53.6880 -8.0240 232° Southwest 496 571 34,000  Level FlightAware ADS-B
08:35AM 53.6394 -8.1296 232° Southwest 495 570 34,000  Level FlightAware ADS-B
08:36AM 53.5854 -8.2469 232° Southwest 456 525 34,000  Level FlightAware UK
08:36AM 53.5701 -8.2798 232° Southwest 495 570 34,000  Level FlightAware ADS-B
08:37AM 53.5013 -8.4285 232° Southwest 456 525 34,000  Level FlightAware UK
08:37AM 53.4672 -8.5009 232° Southwest 495 570 34,000  Level FlightAware ADS-B
08:38AM 53.4085 -8.6269 232° Southwest 458 527 34,000  Level FlightAware UK
08:38AM 53.4016 -8.6409 232° Southwest 496 571 34,000  Level FlightAware ADS-B
08:39AM 53.3234 -8.8069 232° Southwest 458 527 34,000  Level FlightAware UK
08:39AM 53.3197 -8.8146 232° Southwest 496 571 34,000  Level FlightAware ADS-B
08:40AM 53.2384 -8.9863 232° Southwest 456 525 34,000  Level FlightAware UK
08:43AM 53.0110 -9.4581 232° Southwest 497 572 34,000  Level FlightAware ADS-B
08:45AM 53.0150 -9.7950 271° West  Level Estimated
08:45AM 52.8219 -9.8444 271° West 495 570 34,000  Level FlightAware ADS-B
08:48AM 52.8264 -10.3360 271° West  Level Estimated
08:49AM 52.8277 -10.5353 271° West  Level Estimated
08:50AM 52.8286 -10.7347 271° West  Level Estimated
08:51AM 52.8291 -10.9340 270° West  Level Estimated
08:52AM 52.8294 -11.1334 270° West  Level Estimated
08:53AM 52.8293 -11.3328 270° West  Level Estimated
08:54AM 52.8288 -11.5321 270° West  Level Estimated
08:55AM 52.8281 -11.7315 270° West  Level Estimated
08:56AM 52.8270 -11.9308 270° West  Level Estimated
08:57AM 52.8255 -12.1301 269° West  Level Estimated
08:58AM 52.8237 -12.3294 269° West  Level Estimated
08:59AM 52.8217 -12.5287 269° West  Level Estimated
09:00AM 52.8192 -12.7280 269° West  Level Estimated
09:01AM 52.8164 -12.9272 269° West  Level Estimated
09:02AM 52.8133 -13.1265 269° West  Level Estimated
09:03AM 52.8099 -13.3257 268° West  Level Estimated
09:04AM 52.8061 -13.5248 268° West  Level Estimated
09:05AM 52.8020 -13.7239 268° West  Level Estimated
09:06AM 52.7976 -13.9230 268° West  Level Estimated
09:07AM 52.7928 -14.1221 268° West  Level Estimated
09:08AM 52.7877 -14.3211 268° West  Level Estimated
09:09AM 52.7823 -14.5200 267° West  Level Estimated
09:10AM 52.7765 -14.7189 267° West  Level Estimated
09:11AM 52.7704 -14.9178 267° West  Level Estimated
09:12AM 52.7640 -15.1166 267° West  Level Estimated
09:13AM 52.7572 -15.3153 267° West  Level Estimated
09:14AM 52.7501 -15.5139 267° West  Level Estimated
09:15AM 52.7427 -15.7125 267° West  Level Estimated
09:16AM 52.7349 -15.9111 266° West  Level Estimated
09:17AM 52.7268 -16.1095 266° West  Level Estimated
09:18AM 52.7184 -16.3079 266° West  Level Estimated
09:19AM 52.7097 -16.5062 266° West  Level Estimated
09:20AM 52.7006 -16.7044 266° West  Level Estimated
09:21AM 52.6912 -16.9026 266° West  Level Estimated
09:22AM 52.6814 -17.1006 265° West  Level Estimated
09:23AM 52.6713 -17.2986 265° West  Level Estimated
09:24AM 52.6609 -17.4965 265° West  Level Estimated
09:25AM 52.6502 -17.6942 265° West  Level Estimated
09:26AM 52.6391 -17.8919 265° West  Level Estimated
09:27AM 52.6277 -18.0895 265° West  Level Estimated
09:28AM 52.6160 -18.2869 264° West  Level Estimated
09:29AM 52.6040 -18.4843 264° West  Level Estimated
09:30AM 52.5916 -18.6815 264° West  Level Estimated
09:31AM 52.5789 -18.8787 264° West  Level Estimated
09:32AM 52.5658 -19.0757 264° West  Level Estimated
09:33AM 52.5525 -19.2726 264° West  Level Estimated
09:34AM 52.5388 -19.4694 264° West  Level Estimated
09:35AM 52.5248 -19.6660 263° West  Level Estimated
09:36AM 52.5105 -19.8626 263° West  Level Estimated
09:37AM 52.4958 -20.0590 263° West  Level Estimated
09:38AM 52.4808 -20.2552 263° West  Level Estimated
09:39AM 52.4655 -20.4514 263° West  Level Estimated
09:40AM 52.4499 -20.6474 263° West  Level Estimated
09:41AM 52.4339 -20.8432 262° West  Level Estimated
09:42AM 52.4176 -21.0389 262° West  Level Estimated
09:43AM 52.4010 -21.2345 262° West  Level Estimated
09:43AM 48.0000 -20.0000 250° West 519 597 30,000  Level ETMS Enhanced Traffic Management System
09:44AM 52.3841 -21.4299 262° West  Level Estimated
09:45AM 52.3668 -21.6252 262° West  Level Estimated
09:46AM 52.3493 -21.8203 262° West  Level Estimated
09:47AM 52.3314 -22.0153 262° West  Level Estimated
09:48AM 52.3132 -22.2101 261° West  Level Estimated
09:49AM 47.6996 -21.2096 249° West 519 597 30,000  Level FlightAware Transoceanic
09:50AM 47.6483 -21.4099 249° West 519 597 30,000  Level FlightAware Transoceanic
09:51AM 47.5966 -21.6097 249° West 519 597 30,000  Level FlightAware Transoceanic
09:52AM 47.5446 -21.8092 249° West 519 597 30,000  Level FlightAware Transoceanic
09:53AM 47.4923 -22.0082 249° West 519 597 30,000  Level FlightAware Transoceanic
09:54AM 47.4396 -22.2069 249° West 519 597 30,000  Level FlightAware Transoceanic
09:55AM 47.3866 -22.4051 248° West 519 597 30,000  Level FlightAware Transoceanic
09:56AM 47.3332 -22.6030 248° West 519 597 30,000  Level FlightAware Transoceanic
09:57AM 47.2795 -22.8004 248° West 519 597 30,000  Level FlightAware Transoceanic
09:58AM 47.2254 -22.9975 248° West 519 597 30,000  Level FlightAware Transoceanic
09:59AM 47.1711 -23.1942 248° West 519 597 30,000  Level FlightAware Transoceanic
10:00AM 47.1163 -23.3904 248° West 519 597 30,000  Level FlightAware Transoceanic
10:01AM 47.0613 -23.5862 247° West 519 597 30,000  Level FlightAware Transoceanic
10:02AM 47.0059 -23.7817 247° West 519 597 30,000  Level FlightAware Transoceanic
10:03AM 46.9502 -23.9767 247° West 519 597 30,000  Level FlightAware Transoceanic
10:04AM 46.8941 -24.1713 247° West 519 597 30,000  Level FlightAware Transoceanic
10:05AM 46.8378 -24.3655 247° West 519 597 30,000  Level FlightAware Transoceanic
10:06AM 46.7811 -24.5593 247° West 519 597 30,000  Level FlightAware Transoceanic
10:07AM 46.7240 -24.7528 247° West 519 597 30,000  Level FlightAware Transoceanic
10:08AM 46.6667 -24.9457 247° West 519 597 30,000  Level FlightAware Transoceanic
10:09AM 46.6090 -25.1383 246° West 519 597 30,000  Level FlightAware Transoceanic
10:10AM 46.5510 -25.3305 246° West 519 597 30,000  Level FlightAware Transoceanic
10:11AM 46.4926 -25.5222 246° West 519 597 30,000  Level FlightAware Transoceanic
10:12AM 46.4340 -25.7136 246° West 519 597 30,000  Level FlightAware Transoceanic
10:13AM 46.3750 -25.9045 246° West 519 597 30,000  Level FlightAware Transoceanic
10:14AM 46.3158 -26.0951 246° West 519 597 30,000  Level FlightAware Transoceanic
10:15AM 46.2562 -26.2852 246° West 519 597 30,000  Level FlightAware Transoceanic
10:16AM 46.1963 -26.4748 245° Southwest 519 597 30,000  Level FlightAware Transoceanic
10:17AM 46.1360 -26.6641 245° Southwest 519 597 30,000  Level FlightAware Transoceanic
10:18AM 46.0755 -26.8530 245° Southwest 519 597 30,000  Level FlightAware Transoceanic
10:19AM 46.0146 -27.0414 245° Southwest 519 597 30,000  Level FlightAware Transoceanic
10:20AM 45.9535 -27.2295 245° Southwest 519 597 30,000  Level FlightAware Transoceanic
10:21AM 45.8920 -27.4171 245° Southwest 519 597 30,000  Level FlightAware Transoceanic
10:22AM 45.8303 -27.6043 245° Southwest 519 597 30,000  Level FlightAware Transoceanic
10:23AM 45.7682 -27.7911 244° Southwest 519 597 30,000  Level FlightAware Transoceanic
10:24AM 45.7058 -27.9774 244° Southwest 519 597 30,000  Level FlightAware Transoceanic
10:25AM 45.6431 -28.1634 244° Southwest 519 597 30,000  Level FlightAware Transoceanic
10:26AM 45.5802 -28.3489 244° Southwest 519 597 30,000  Level FlightAware Transoceanic
10:27AM 45.5169 -28.5340 244° Southwest 519 597 30,000  Level FlightAware Transoceanic
10:28AM 45.4533 -28.7188 244° Southwest 519 597 30,000  Level FlightAware Transoceanic
10:29AM 45.3894 -28.9030 244° Southwest 519 597 30,000  Level FlightAware Transoceanic
10:30AM 45.3252 -29.0869 244° Southwest 519 597 30,000  Level FlightAware Transoceanic
10:31AM 45.2608 -29.2704 243° Southwest 519 597 30,000  Level FlightAware Transoceanic
10:32AM 45.1960 -29.4534 243° Southwest 519 597 30,000  Level FlightAware Transoceanic
10:33AM 45.1310 -29.6360 243° Southwest 519 597 30,000  Level FlightAware Transoceanic
10:34AM 45.0656 -29.8182 243° Southwest 519 597 30,000  Level FlightAware Transoceanic
10:35AM 45.0108 -29.9700 243° Southwest  Level FlightAware Approximate
10:36AM 44.9559 -30.1215 243° Southwest  Level FlightAware Approximate
10:37AM 44.9756 -30.0999 251° West  Level FlightAware Approximate
10:38AM 44.9362 -30.2607 251° West  Level FlightAware Approximate
10:39AM 44.8965 -30.4213 251° West  Level FlightAware Approximate
10:40AM 44.8566 -30.5817 251° West  Level FlightAware Approximate
10:41AM 44.8164 -30.7418 251° West  Level FlightAware Approximate
10:42AM 44.7761 -30.9017 250° West  Level FlightAware Approximate
10:43AM 44.7355 -31.0614 250° West  Level FlightAware Approximate
10:44AM 44.6947 -31.2209 250° West  Level FlightAware Approximate
10:45AM 44.6537 -31.3802 250° West  Level FlightAware Approximate
10:46AM 44.6124 -31.5392 250° West  Level FlightAware Approximate
10:47AM 44.5709 -31.6980 250° West  Level FlightAware Approximate
10:48AM 44.5293 -31.8566 250° West  Level FlightAware Approximate
10:49AM 44.4873 -32.0149 250° West  Level FlightAware Approximate
10:50AM 44.4452 -32.1730 250° West  Level FlightAware Approximate
10:51AM 44.4029 -32.3309 249° West  Level FlightAware Approximate
10:52AM 44.3603 -32.4886 249° West  Level FlightAware Approximate
10:53AM 44.3175 -32.6460 249° West  Level FlightAware Approximate
10:54AM 44.2746 -32.8032 249° West  Level FlightAware Approximate
10:55AM 44.2313 -32.9602 249° West  Level FlightAware Approximate
10:56AM 44.1879 -33.1169 249° West  Level FlightAware Approximate
10:57AM 44.1443 -33.2734 249° West  Level FlightAware Approximate
10:58AM 44.1004 -33.4297 249° West  Level FlightAware Approximate
10:59AM 44.0564 -33.5858 249° West  Level FlightAware Approximate
11:00AM 44.0121 -33.7416 248° West  Level FlightAware Approximate
11:01AM 43.9676 -33.8972 248° West  Level FlightAware Approximate
11:02AM 43.9229 -34.0525 248° West  Level FlightAware Approximate
11:03AM 43.8780 -34.2076 248° West  Level FlightAware Approximate
11:04AM 43.8329 -34.3625 248° West  Level FlightAware Approximate
11:05AM 43.7876 -34.5171 248° West  Level FlightAware Approximate
11:06AM 43.7421 -34.6716 248° West  Level FlightAware Approximate
11:07AM 43.6963 -34.8257 248° West  Level FlightAware Approximate
11:08AM 43.6504 -34.9797 248° West  Level FlightAware Approximate
11:09AM 43.6042 -35.1334 248° West  Level FlightAware Approximate
11:10AM 43.5578 -35.2868 247° West  Level FlightAware Approximate
11:11AM 43.5113 -35.4401 247° West  Level FlightAware Approximate
11:12AM 43.4645 -35.5930 247° West  Level FlightAware Approximate
11:13AM 43.4175 -35.7458 247° West  Level FlightAware Approximate
11:14AM 43.3704 -35.8983 247° West  Level FlightAware Approximate
11:15AM 43.3230 -36.0506 247° West  Level FlightAware Approximate
11:16AM 43.2754 -36.2026 247° West  Level FlightAware Approximate
11:17AM 43.2276 -36.3545 247° West  Level FlightAware Approximate
11:18AM 43.1797 -36.5060 247° West  Level FlightAware Approximate
11:19AM 43.1315 -36.6573 246° West  Level FlightAware Approximate
11:20AM 43.0831 -36.8084 246° West  Level FlightAware Approximate
11:21AM 43.0345 -36.9593 246° West  Level FlightAware Approximate
11:22AM 42.9857 -37.1099 246° West  Level FlightAware Approximate
11:23AM 42.9368 -37.2603 246° West  Level FlightAware Approximate
11:24AM 42.8876 -37.4104 246° West  Level FlightAware Approximate
11:25AM 42.8382 -37.5603 246° West  Level FlightAware Approximate
11:26AM 42.7887 -37.7099 246° West  Level FlightAware Approximate
11:27AM 42.7389 -37.8593 246° West  Level FlightAware Approximate
11:28AM 42.6890 -38.0085 246° West  Level FlightAware Approximate
11:29AM 42.6389 -38.1575 245° Southwest  Level FlightAware Approximate
11:30AM 42.5885 -38.3061 245° Southwest  Level FlightAware Approximate
11:31AM 42.5380 -38.4546 245° Southwest  Level FlightAware Approximate
11:32AM 42.4873 -38.6028 245° Southwest  Level FlightAware Approximate
11:33AM 42.4364 -38.7508 245° Southwest  Level FlightAware Approximate
11:34AM 42.3853 -38.8985 245° Southwest  Level FlightAware Approximate
11:34AM 42.0000 -40.0000 252° West 436 502 33,000  Level New York Oceanic (ODAPS)
11:35AM 42.3341 -39.0461 245° Southwest  Level FlightAware Approximate
11:36AM 42.2832 -39.1937 245° Southwest  Level FlightAware Approximate
11:37AM 42.2321 -39.3410 245° Southwest  Level FlightAware Approximate
11:38AM 42.1807 -39.4881 245° Southwest  Level FlightAware Approximate
11:39AM 42.1292 -39.6350 245° Southwest  Level FlightAware Approximate
11:40AM 41.7709 -40.9179 251° West 436 502 33,000  Level FlightAware Transoceanic
11:40AM 41.7500 -41.0000 251° West 437 503 33,000  Level New York Oceanic (ODAPS)
11:41AM 41.7320 -41.0702 251° West 436 502 33,000  Level FlightAware Transoceanic
11:42AM 41.6930 -41.2224 251° West 436 502 33,000  Level FlightAware Transoceanic
11:43AM 41.6537 -41.3743 251° West 436 502 33,000  Level FlightAware Transoceanic
11:44AM 41.6142 -41.5261 251° West 436 502 33,000  Level FlightAware Transoceanic
11:45AM 41.5745 -41.6777 251° West 436 502 33,000  Level FlightAware Transoceanic
11:46AM 41.5346 -41.8291 251° West 436 502 33,000  Level FlightAware Transoceanic
11:47AM 41.5112 -41.9175 250° West 437 503 33,000  Level FlightAware Transoceanic
11:48AM 41.4707 -42.0698 250° West 437 503 33,000  Level FlightAware Transoceanic
11:49AM 41.4300 -42.2218 250° West 437 503 33,000  Level FlightAware Transoceanic
11:50AM 41.3891 -42.3737 250° West 437 503 33,000  Level FlightAware Transoceanic
11:51AM 41.3480 -42.5254 250° West 437 503 33,000  Level FlightAware Transoceanic
11:52AM 41.3067 -42.6769 250° West 437 503 33,000  Level FlightAware Transoceanic
11:53AM 41.2652 -42.8282 250° West 437 503 33,000  Level FlightAware Transoceanic
11:54AM 41.2235 -42.9793 250° West 437 503 33,000  Level FlightAware Transoceanic
11:54AM 41.2000 -43.0667 250° West 428 493 33,000  Level New York Oceanic (ODAPS)
11:55AM 41.1816 -43.1302 250° West 437 503 33,000  Level FlightAware Transoceanic
11:56AM 41.1395 -43.2809 250° West 437 503 33,000  Level FlightAware Transoceanic
11:57AM 41.0972 -43.4314 249° West 437 503 33,000  Level FlightAware Transoceanic
11:58AM 41.0547 -43.5817 249° West 437 503 33,000  Level FlightAware Transoceanic
11:59AM 41.0120 -43.7319 249° West 437 503 33,000  Level FlightAware Transoceanic
12:00PM 40.9692 -43.8818 249° West 437 503 33,000  Level FlightAware Transoceanic
12:01PM 40.9480 -43.9577 249° West 428 493 33,000  Level FlightAware Transoceanic
12:02PM 40.9054 -44.1056 249° West 428 493 33,000  Level FlightAware Transoceanic
12:03PM 40.8625 -44.2532 249° West 428 493 33,000  Level FlightAware Transoceanic
12:04PM 40.8195 -44.4007 249° West 428 493 33,000  Level FlightAware Transoceanic
12:05PM 40.7762 -44.5480 249° West 428 493 33,000  Level FlightAware Transoceanic
12:06PM 40.7328 -44.6950 249° West 428 493 33,000  Level FlightAware Transoceanic
12:07PM 40.6892 -44.8419 249° West 428 493 33,000  Level FlightAware Transoceanic
12:08PM 40.6455 -44.9886 248° West 428 493 33,000 600 Level FlightAware Transoceanic
12:08PM 40.6167 -45.0667 248° West 427 491 34,000  Climbing New York Oceanic (ODAPS)
12:09PM 40.6015 -45.1351 248° West 428 493 33,000 -780 Descending FlightAware Transoceanic
12:10PM 40.5573 -45.2814 248° West 428 493 33,000  Level FlightAware Transoceanic
12:11PM 40.5130 -45.4275 248° West 428 493 33,000  Level FlightAware Transoceanic
12:12PM 40.4685 -45.5734 248° West 428 493 33,000  Level FlightAware Transoceanic
12:13PM 40.4238 -45.7192 248° West 428 493 33,000  Level FlightAware Transoceanic
12:14PM 40.3789 -45.8647 248° West 428 493 33,000 480 Level FlightAware Transoceanic
12:15PM 40.3467 -45.9541 248° West 427 491 34,000 480 Climbing FlightAware Transoceanic
12:16PM 40.3011 -46.1013 248° West 427 491 34,000  Level FlightAware Transoceanic
12:17PM 40.2552 -46.2483 248° West 427 491 34,000  Level FlightAware Transoceanic
12:18PM 40.2092 -46.3951 248° West 427 491 34,000  Level FlightAware Transoceanic
12:19PM 40.1630 -46.5417 248° West 427 491 34,000  Level FlightAware Transoceanic
12:20PM 40.1166 -46.6881 247° West 427 491 34,000  Level FlightAware Transoceanic
12:21PM 40.0701 -46.8343 247° West 427 491 34,000  Level FlightAware Transoceanic
12:22PM 40.0233 -46.9803 247° West 427 491 34,000  Level FlightAware Transoceanic
12:22PM 40.0000 -47.0667 247° West 429 494 34,000  Level New York Oceanic (ODAPS)
12:23PM 39.9764 -47.1261 247° West 427 491 34,000  Level FlightAware Transoceanic
12:24PM 39.9292 -47.2717 247° West 427 491 34,000  Level FlightAware Transoceanic
12:25PM 39.8819 -47.4171 247° West 427 491 34,000  Level FlightAware Transoceanic
12:26PM 39.8344 -47.5624 247° West 427 491 34,000  Level FlightAware Transoceanic
12:27PM 39.7868 -47.7074 247° West 427 491 34,000  Level FlightAware Transoceanic
12:28PM 39.7218 -47.9134 247° West 429 494 34,000  Level FlightAware Transoceanic
12:29PM 39.6749 -48.0538 246° West 429 494 34,000  Level FlightAware Transoceanic
12:30PM 39.6278 -48.1941 246° West 429 494 34,000  Level FlightAware Transoceanic
12:31PM 39.5805 -48.3341 246° West 429 494 34,000  Level FlightAware Transoceanic
12:32PM 39.5330 -48.4740 246° West 429 494 34,000  Level FlightAware Transoceanic
12:33PM 39.4854 -48.6137 246° West 429 494 34,000  Level FlightAware Transoceanic
12:34PM 39.4376 -48.7532 246° West 429 494 34,000  Level FlightAware Transoceanic
12:35PM 39.3896 -48.8925 246° West 429 494 34,000  Level FlightAware Transoceanic
12:36PM 39.3415 -49.0316 246° West 429 494 34,000  Level FlightAware Transoceanic
12:36PM 39.3333 -49.0500 246° West 431 496 34,000  Level New York Oceanic (ODAPS)
12:37PM 39.2932 -49.1705 246° West 429 494 34,000  Level FlightAware Transoceanic
12:38PM 39.2447 -49.3092 246° West 429 494 34,000  Level FlightAware Transoceanic
12:39PM 39.1961 -49.4478 246° West 429 494 34,000  Level FlightAware Transoceanic
12:40PM 39.1473 -49.5861 245° Southwest 429 494 34,000  Level FlightAware Transoceanic
12:41PM 39.0984 -49.7243 245° Southwest 429 494 34,000  Level FlightAware Transoceanic
12:42PM 39.0481 -49.8648 245° Southwest 431 496 34,000  Level FlightAware Transoceanic
12:43PM 39.0000 -50.0000 234° Southwest 431 496 34,000  Level FlightAware Transoceanic
12:43PM 39.0000 -50.0000 234° Southwest 452 520 34,000  Level New York Oceanic (ODAPS)
12:44PM 38.9258 -50.1333 234° Southwest 431 496 34,000  Level FlightAware Transoceanic
12:45PM 38.8514 -50.2664 234° Southwest 431 496 34,000  Level FlightAware Transoceanic
12:46PM 38.7769 -50.3991 234° Southwest 431 496 34,000  Level FlightAware Transoceanic
12:47PM 38.7023 -50.5316 234° Southwest 431 496 34,000  Level FlightAware Transoceanic
12:48PM 38.6274 -50.6638 234° Southwest 431 496 34,000  Level FlightAware Transoceanic
12:49PM 38.5637 -50.7760 234° Southwest 452 520 34,000  Level FlightAware Transoceanic
12:50PM 38.4905 -50.9044 234° Southwest 452 520 34,000  Level FlightAware Transoceanic
12:50PM 38.4833 -50.9333 234° Southwest 453 521 34,000  Level New York Oceanic (ODAPS)
12:51PM 38.4172 -51.0326 234° Southwest 452 520 34,000  Level FlightAware Transoceanic
12:52PM 38.3437 -51.1604 234° Southwest 452 520 34,000  Level FlightAware Transoceanic
12:53PM 38.2701 -51.2881 234° Southwest 452 520 34,000  Level FlightAware Transoceanic
12:54PM 38.1963 -51.4154 234° Southwest 452 520 34,000  Level FlightAware Transoceanic
12:55PM 38.1224 -51.5425 233° Southwest 452 520 34,000  Level FlightAware Transoceanic
12:56PM 38.0484 -51.6694 233° Southwest 452 520 34,000  Level FlightAware Transoceanic
12:57PM 37.9522 -51.8460 233° Southwest 453 521 34,000  Level FlightAware Transoceanic
12:58PM 37.8757 -51.9753 233° Southwest 453 521 34,000  Level FlightAware Transoceanic
12:59PM 37.7991 -52.1044 233° Southwest 453 521 34,000  Level FlightAware Transoceanic
01:00PM 37.7224 -52.2332 233° Southwest 453 521 34,000  Level FlightAware Transoceanic
01:01PM 37.6455 -52.3616 233° Southwest 453 521 34,000  Level FlightAware Transoceanic
01:02PM 37.5685 -52.4899 233° Southwest 453 521 34,000  Level FlightAware Transoceanic
01:03PM 37.4913 -52.6179 233° Southwest 453 521 34,000  Level FlightAware Transoceanic
01:04PM 37.4140 -52.7456 233° Southwest 453 521 34,000  Level FlightAware Transoceanic
01:04PM 37.4333 -52.7167 233° Southwest 455 524 34,000  Level New York Oceanic (ODAPS)
01:05PM 37.3366 -52.8730 233° Southwest 453 521 34,000  Level FlightAware Transoceanic
01:06PM 37.2590 -53.0002 232° Southwest 453 521 34,000  Level FlightAware Transoceanic
01:07PM 37.1814 -53.1271 232° Southwest 453 521 34,000  Level FlightAware Transoceanic
01:08PM 37.1035 -53.2538 232° Southwest 453 521 34,000  Level FlightAware Transoceanic
01:09PM 37.0255 -53.3801 232° Southwest 453 521 34,000  Level FlightAware Transoceanic
01:10PM 36.9604 -53.4873 232° Southwest 455 524 34,000  Level FlightAware Transoceanic
01:11PM 36.8811 -53.6148 232° Southwest 455 524 34,000  Level FlightAware Transoceanic
01:12PM 36.8017 -53.7420 232° Southwest 455 524 34,000  Level FlightAware Transoceanic
01:13PM 36.7221 -53.8690 232° Southwest 455 524 34,000  Level FlightAware Transoceanic
01:14PM 36.6424 -53.9957 232° Southwest 455 524 34,000  Level FlightAware Transoceanic
01:15PM 36.5626 -54.1221 232° Southwest 455 524 34,000  Level FlightAware Transoceanic
01:16PM 36.4826 -54.2483 232° Southwest 455 524 34,000  Level FlightAware Transoceanic
01:17PM 36.4025 -54.3742 232° Southwest 455 524 34,000  Level FlightAware Transoceanic
01:17PM 36.3667 -54.4333 231° Southwest 458 527 34,000  Level New York Oceanic (ODAPS)
01:18PM 36.3223 -54.4999 232° Southwest 455 524 34,000  Level FlightAware Transoceanic
01:19PM 36.2419 -54.6253 231° Southwest 455 524 34,000  Level FlightAware Transoceanic
01:20PM 36.1614 -54.7505 231° Southwest 455 524 34,000  Level FlightAware Transoceanic
01:21PM 36.0808 -54.8754 231° Southwest 455 524 34,000  Level FlightAware Transoceanic
01:22PM 36.0000 -55.0000 245° Southwest 455 524 34,000  Level FlightAware Transoceanic
01:23PM 35.9473 -55.1422 245° Southwest 455 524 34,000  Level FlightAware Transoceanic
01:23PM 36.0000 -55.0000 245° Southwest 460 529 34,000  Level New York Oceanic (ODAPS)
01:24PM 35.8944 -55.2842 245° Southwest 458 527 34,000  Level FlightAware Transoceanic
01:25PM 35.8413 -55.4260 245° Southwest 458 527 34,000  Level FlightAware Transoceanic
01:26PM 35.7881 -55.5677 245° Southwest 458 527 34,000  Level FlightAware Transoceanic
01:27PM 35.7347 -55.7091 245° Southwest 458 527 34,000  Level FlightAware Transoceanic
01:28PM 35.6811 -55.8503 245° Southwest 458 527 34,000  Level FlightAware Transoceanic
01:29PM 35.6274 -55.9914 245° Southwest 460 529 34,000  Level FlightAware Transoceanic
01:30PM 35.5735 -56.1323 245° Southwest 460 529 34,000  Level FlightAware Transoceanic
01:31PM 35.5194 -56.2730 245° Southwest 460 529 34,000  Level FlightAware Transoceanic
01:31PM 35.5000 -56.3333 245° Southwest 462 532 34,000  Level New York Oceanic (ODAPS)
01:32PM 35.4652 -56.4135 245° Southwest 460 529 34,000  Level FlightAware Transoceanic
01:33PM 35.4108 -56.5538 245° Southwest 460 529 34,000  Level FlightAware Transoceanic
01:34PM 35.3563 -56.6939 244° Southwest 460 529 34,000  Level FlightAware Transoceanic
01:35PM 35.3016 -56.8338 244° Southwest 460 529 34,000  Level FlightAware Transoceanic
01:36PM 35.2467 -56.9735 244° Southwest 460 529 34,000  Level FlightAware Transoceanic
01:37PM 35.1917 -57.1131 244° Southwest 460 529 34,000  Level FlightAware Transoceanic
01:38PM 35.1637 -57.1913 244° Southwest 462 532 34,000  Level FlightAware Transoceanic
01:39PM 35.1070 -57.3336 244° Southwest 462 532 34,000  Level FlightAware Transoceanic
01:40PM 35.0502 -57.4757 244° Southwest 462 532 34,000  Level FlightAware Transoceanic
01:41PM 34.9933 -57.6177 244° Southwest 462 532 34,000  Level FlightAware Transoceanic
01:42PM 34.9361 -57.7594 244° Southwest 462 532 34,000  Level FlightAware Transoceanic
01:43PM 34.8788 -57.9009 244° Southwest 462 532 34,000  Level FlightAware Transoceanic
01:44PM 34.8214 -58.0422 244° Southwest 462 532 34,000  Level FlightAware Transoceanic
01:45PM 34.7637 -58.1833 244° Southwest 462 532 34,000  Level FlightAware Transoceanic
01:45PM 34.7167 -58.3000 243° Southwest 463 533 34,000  Level New York Oceanic (ODAPS)
01:46PM 34.7060 -58.3242 243° Southwest 462 532 34,000  Level FlightAware Transoceanic
01:47PM 34.6480 -58.4650 243° Southwest 462 532 34,000  Level FlightAware Transoceanic
01:48PM 34.5899 -58.6055 243° Southwest 462 532 34,000  Level FlightAware Transoceanic
01:49PM 34.5316 -58.7458 243° Southwest 462 532 34,000  Level FlightAware Transoceanic
01:50PM 34.4732 -58.8860 243° Southwest 462 532 34,000  Level FlightAware Transoceanic
01:51PM 34.4209 -59.0119 243° Southwest 463 533 34,000  Level FlightAware Transoceanic
01:52PM 34.3613 -59.1536 243° Southwest 463 533 34,000  Level FlightAware Transoceanic
01:53PM 34.3015 -59.2952 243° Southwest 463 533 34,000  Level FlightAware Transoceanic
01:54PM 34.2415 -59.4366 243° Southwest 463 533 34,000  Level FlightAware Transoceanic
01:55PM 34.1814 -59.5777 243° Southwest 463 533 34,000  Level FlightAware Transoceanic
01:56PM 34.1211 -59.7187 243° Southwest 463 533 34,000  Level FlightAware Transoceanic
01:57PM 34.0606 -59.8594 243° Southwest 463 533 34,000  Level FlightAware Transoceanic
01:58PM 34.0000 -60.0000 252° West 463 533 34,000  Level FlightAware Transoceanic
01:58PM 34.0000 -60.0000 252° West 467 537 34,000  Level New York Oceanic (ODAPS)
01:59PM 33.9591 -60.1490 252° West 463 533 34,000  Level FlightAware Transoceanic
01:59PM 34.0000 -60.0000 252° West 467 537 34,000  Level New York Oceanic (ODAPS)
01:59PM 33.9333 -60.2833 251° West 466 536 34,000  Level New York Oceanic (ODAPS)
02:00PM 33.9181 -60.2978 252° West 463 533 34,000  Level FlightAware Transoceanic
02:01PM 33.8769 -60.4465 251° West 463 533 34,000  Level FlightAware Transoceanic
02:02PM 33.8355 -60.5951 251° West 463 533 34,000  Level FlightAware Transoceanic
02:03PM 33.7939 -60.7435 251° West 463 533 34,000  Level FlightAware Transoceanic
02:04PM 33.7521 -60.8917 251° West 467 537 34,000  Level FlightAware Transoceanic
02:04PM 33.7089 -61.0819 250° West 475 547 34,000  Level New York Center
02:05PM 33.7013 -61.0844 251° West 466 536 34,000  Level FlightAware Transoceanic
02:05PM 33.6675 -61.2142 249° West 475 547 34,000  Level New York Center
02:06PM 33.6621 -61.2175 250° West 466 536 34,000  Level FlightAware Transoceanic
02:06PM 33.6181 -61.3769 250° West 475 547 34,000  Level New York Center
02:07PM 33.6228 -61.3505 250° West 466 536 34,000  Level FlightAware Transoceanic
02:07PM 33.5739 -61.5289 251° West 480 552 34,000  Level New York Center
02:08PM 33.5256 -61.6586 246° West 480 552 34,000  Level New York Center
02:09PM 33.4578 -61.8103 242° Southwest 485 558 34,000  Level New York Center
02:10PM 33.4000 -61.9558 245° Southwest 485 558 34,000  Level New York Center
02:11PM 33.3425 -62.0811 241° Southwest 485 558 34,000  Level New York Center
02:12PM 33.2703 -62.2350 241° Southwest 485 558 34,000  Level New York Center
02:13PM 33.2150 -62.3647 243° Southwest 493 567 34,000  Level New York Center
02:14PM 33.1444 -62.5181 241° Southwest 488 562 34,000  Level New York Center
02:15PM 33.0833 -62.6578 242° Southwest 483 556 34,000  Level New York Center
02:16PM 33.0292 -62.7817 242° Southwest 483 556 34,000  Level New York Center
02:17PM 32.9583 -62.9369 242° Southwest 483 556 34,000  Level New York Center
02:18PM 32.8944 -63.0761 241° Southwest 483 556 34,000  Level New York Center
02:19PM 32.8358 -63.2000 241° Southwest 483 556 34,100 240 Climbing New York Center
02:20PM 32.7683 -63.3517 242° Southwest 483 556 34,500 420 Climbing New York Center
02:21PM 32.7092 -63.4725 240° Southwest 483 556 35,000 240 Climbing New York Center
02:22PM 32.6411 -63.6239 242° Southwest 478 550 35,000  Level New York Center
02:23PM 32.5783 -63.7569 241° Southwest 478 550 35,000  Level New York Center
02:24PM 32.5228 -63.8772 241° Southwest 473 544 35,000  Level New York Center
02:25PM 32.4522 -64.0256 241° Southwest 473 544 35,000  Level New York Center
02:26PM 32.3908 -64.1581 241° Southwest 473 544 35,000  Level New York Center
02:27PM 32.3350 -64.2778 241° Southwest 473 544 35,000  Level New York Center
02:28PM 32.2636 -64.4228 240° Southwest 472 543 35,000  Level New York Center
02:29PM 32.1997 -64.5575 241° Southwest 472 543 35,000  Level New York Center
02:30PM 32.1414 -64.6767 240° Southwest 472 543 35,000  Level New York Center
02:31PM 32.0719 -64.8258 241° Southwest 477 549 35,000  Level New York Center
02:32PM 32.0114 -64.9522 241° Southwest 471 542 35,000  Level New York Center
02:33PM 31.9569 -65.0708 242° Southwest 471 542 35,000  Level New York Center
02:34PM 31.8867 -65.2147 240° Southwest 471 542 35,000  Level New York Center
02:35PM 31.8294 -65.3306 240° Southwest 464 534 35,000  Level New York Center
02:36PM 31.7608 -65.4739 241° Southwest 459 528 35,000  Level New York Center
02:37PM 31.7000 -65.6017 241° Southwest 459 528 35,000  Level New York Center
02:38PM 31.6444 -65.7144 240° Southwest 459 528 35,000  Level New York Center
02:39PM 31.5753 -65.8547 240° Southwest 459 528 35,000  Level New York Center
02:40PM 31.5117 -65.9822 240° Southwest 459 528 35,000  Level New York Center
02:41PM 31.4558 -66.0947 240° Southwest 459 528 35,000  Level New York Center
02:42PM 31.3883 -66.2367 241° Southwest 464 534 35,000  Level New York Center
02:43PM 31.3303 -66.3511 239° Southwest 459 528 35,000  Level New York Center
02:44PM 31.2603 -66.4928 240° Southwest 464 534 35,000  Level New York Center
02:45PM 31.1958 -66.6144 238° Southwest 459 528 35,000  Level New York Center
02:46PM 31.1375 -66.7311 240° Southwest 459 528 35,000  Level New York Center
02:47PM 31.0650 -66.8675 238° Southwest 464 534 35,000  Level New York Center
02:48PM 31.0047 -66.9981 242° Southwest 459 528 35,000  Level New York Center
02:49PM 30.9478 -67.1139 240° Southwest 459 528 35,000  Level New York Center
02:50PM 30.8769 -67.2497 239° Southwest 459 528 35,000  Level New York Center
02:51PM 30.8119 -67.3753 239° Southwest 459 528 35,000  Level New York Center
02:52PM 30.7525 -67.4883 239° Southwest 459 528 35,000  Level New York Center
02:53PM 30.6833 -67.6256 240° Southwest 459 528 35,000  Level New York Center
02:55PM 30.5944 -67.7558 239° Southwest  Level FlightAware Approximate
03:02PM 30.1204 -68.6564 239° Southwest  Level FlightAware Approximate
03:03PM 30.0522 -68.7844 238° Southwest  Level FlightAware Approximate
03:04PM 29.9839 -68.9122 238° Southwest  Level FlightAware Approximate
03:05PM 29.9154 -69.0398 238° Southwest  Level FlightAware Approximate
03:06PM 29.8468 -69.1672 238° Southwest  Level FlightAware Approximate
03:07PM 29.7781 -69.2944 238° Southwest  Level FlightAware Approximate
03:08PM 29.7093 -69.4215 238° Southwest  Level FlightAware Approximate
03:08PM 29.7000 -69.5000 238° Southwest 448 516 35,000  Level New York Oceanic (ODAPS)
03:09PM 29.6402 -69.5483 238° Southwest  Level FlightAware Approximate
03:10PM 29.5708 -69.6749 238° Southwest  Level FlightAware Approximate
03:11PM 29.5013 -69.8012 238° Southwest  Level FlightAware Approximate
03:12PM 29.4317 -69.9273 238° Southwest  Level FlightAware Approximate
03:13PM 29.3620 -70.0533 238° Southwest  Level FlightAware Approximate
03:14PM 29.2921 -70.1791 238° Southwest  Level FlightAware Approximate
03:15PM 29.2934 -70.2362 237° Southwest 448 516 35,000  Level FlightAware Transoceanic
03:16PM 29.2253 -70.3584 237° Southwest 448 516 35,000  Level FlightAware Transoceanic
03:17PM 29.1570 -70.4803 237° Southwest 448 516 35,000  Level FlightAware Transoceanic
03:18PM 29.0886 -70.6021 237° Southwest 448 516 35,000  Level FlightAware Transoceanic
03:19PM 29.0201 -70.7238 237° Southwest 448 516 35,000  Level FlightAware Transoceanic
03:20PM 28.9515 -70.8453 237° Southwest 448 516 35,000  Level FlightAware Transoceanic
03:21PM 28.8828 -70.9666 237° Southwest 448 516 35,000  Level FlightAware Transoceanic
03:21PM 28.8833 -71.0000 237° Southwest 454 522 35,000  Level New York Oceanic (ODAPS)
03:22PM 28.8140 -71.0878 237° Southwest 448 516 35,000  Level FlightAware Transoceanic
03:22PM 28.7833 -71.1833 237° Southwest 448 516 35,000  Level New York Oceanic (ODAPS)
03:23PM 28.7451 -71.2087 237° Southwest 448 516 35,000  Level FlightAware Transoceanic
03:24PM 28.6761 -71.3296 237° Southwest 448 516 35,000  Level FlightAware Transoceanic
03:25PM 28.6069 -71.4503 237° Southwest 448 516 35,000  Level FlightAware Transoceanic
03:26PM 28.5377 -71.5708 237° Southwest 448 516 35,000  Level FlightAware Transoceanic
03:27PM 28.4686 -71.7173 236° Southwest 454 522 35,000  Level FlightAware Transoceanic
03:28PM 28.3991 -71.8363 236° Southwest 454 522 35,000  Level FlightAware Transoceanic
03:29PM 28.3588 -71.9122 236° Southwest 448 516 35,000  Level FlightAware Transoceanic
03:29PM 28.3167 -71.9167 237° Southwest 451 519 35,000  Level New York Oceanic (ODAPS)
03:30PM 28.2877 -72.0331 236° Southwest 448 516 35,000  Level FlightAware Transoceanic
03:31PM 28.2165 -72.1538 236° Southwest 448 516 35,000  Level FlightAware Transoceanic
03:32PM 28.1451 -72.2744 236° Southwest 448 516 35,000  Level FlightAware Transoceanic
03:33PM 28.0737 -72.3948 236° Southwest 448 516 35,000  Level FlightAware Transoceanic
03:34PM 28.0022 -72.5151 236° Southwest 448 516 35,000  Level FlightAware Transoceanic
03:35PM 27.9010 -72.6381 237° Southwest 451 519 35,000  Level FlightAware Transoceanic
03:36PM 27.8313 -72.7578 237° Southwest 451 519 35,000  Level FlightAware Transoceanic
03:36PM 27.8000 -72.8333 236° Southwest 444 511 35,000  Level New York Oceanic (ODAPS)
03:37PM 27.7616 -72.8773 237° Southwest 451 519 35,000  Level FlightAware Transoceanic
03:38PM 27.6917 -72.9967 237° Southwest 451 519 35,000  Level FlightAware Transoceanic
03:39PM 27.6218 -73.1160 236° Southwest 451 519 35,000  Level FlightAware Transoceanic
03:40PM 27.5517 -73.2350 236° Southwest 451 519 35,000  Level FlightAware Transoceanic
03:41PM 27.4815 -73.3540 236° Southwest 451 519 35,000  Level FlightAware Transoceanic
03:42PM 27.3942 -73.5132 236° Southwest 444 511 35,000  Level FlightAware Transoceanic
03:43PM 27.3263 -73.6260 236° Southwest 444 511 35,000  Level FlightAware Transoceanic
03:44PM 27.2582 -73.7387 236° Southwest 444 511 35,000  Level FlightAware Transoceanic
03:45PM 27.1901 -73.8512 236° Southwest 444 511 35,000  Level FlightAware Transoceanic
03:46PM 27.1219 -73.9636 236° Southwest 444 511 35,000  Level FlightAware Transoceanic
03:47PM 27.0536 -74.0759 236° Southwest 444 511 35,000  Level FlightAware Transoceanic
03:48PM 26.9852 -74.1880 236° Southwest 444 511 35,000  Level FlightAware Transoceanic
03:49PM 26.9167 -74.3000 237° Southwest 444 511 35,000  Level FlightAware Transoceanic
03:50PM 26.8487 -74.4156 237° Southwest 444 511 35,000  Level FlightAware Transoceanic
03:51PM 26.7807 -74.5311 237° Southwest 444 511 35,000  Level FlightAware Transoceanic
03:52PM 26.7126 -74.6464 237° Southwest 444 511 35,000  Level FlightAware Transoceanic
03:53PM 26.6444 -74.7617 236° Southwest 444 511 35,000  Level FlightAware Transoceanic
03:54PM 26.5762 -74.8767 236° Southwest 444 511 35,000  Level FlightAware Transoceanic
03:55PM 26.5078 -74.9917 236° Southwest 444 511 35,000  Level FlightAware Transoceanic
03:56PM 26.4393 -75.1064 236° Southwest 444 511 35,000  Level FlightAware Transoceanic
03:57PM 26.3864 -75.2142 236° Southwest 472 543 35,000  Level Miami Center
03:58PM 26.3122 -75.3286 234° Southwest 467 537 35,100 300 Climbing Miami Center
03:59PM 26.2550 -75.4475 242° Southwest 455 524 35,600 420 Climbing Miami Center
04:00PM 26.1892 -75.5664 238° Southwest 450 518 36,000 180 Climbing Miami Center
04:01PM 26.1297 -75.6897 242° Southwest 450 518 36,000  Level Miami Center
04:02PM 26.0658 -75.8083 239° Southwest 450 518 36,000  Level Miami Center
04:03PM 26.0019 -75.9269 239° Southwest 450 518 36,000  Level Miami Center
04:04PM 25.9400 -76.0453 240° Southwest 450 518 36,000  Level Miami Center
04:05PM 25.8758 -76.1636 239° Southwest 450 518 36,000  Level Miami Center
04:06PM 25.8136 -76.2792 239° Southwest 450 518 36,000  Level Miami Center
04:07PM 25.7514 -76.3997 240° Southwest 450 518 36,000 -120 Level Miami Center
04:13PM 25.3636 -77.1236 240° Southwest 444 511 35,500 -180 Descending FlightAware ADS-B (KMIA)
04:13PM 25.3299 -77.1860 239° Southwest 443 510 35,000 -1,020 Descending FlightAware ADS-B (KMIA)
04:14PM 25.2913 -77.2572 239° Southwest 448 516 34,400 -900 Descending FlightAware ADS-B (KMIA)
04:14PM 25.2571 -77.3202 239° Southwest 449 517 34,000 -420 Descending FlightAware ADS-B (KMIA)
04:15PM 25.2249 -77.3796 239° Southwest 449 517 34,000  Level FlightAware ADS-B (KMIA)
04:15PM 25.1913 -77.4414 239° Southwest 451 519 34,000  Level FlightAware ADS-B (KMIA)
04:16PM 25.1616 -77.4957 239° Southwest 452 520 34,000  Level FlightAware ADS-B (KMIA)
04:16PM 25.1147 -77.5817 239° Southwest 452 520 34,000  Level FlightAware ADS-B (KMIA)
04:17PM 25.0732 -77.6576 239° Southwest 452 520 34,000  Level FlightAware ADS-B (KMIA)
04:18PM 25.0331 -77.7309 239° Southwest 452 520 34,000  Level FlightAware ADS-B (KMIA)
04:18PM 24.9959 -77.7989 239° Southwest 454 522 34,000  Level FlightAware ADS-B (KMIA)
04:19PM 24.9493 -77.8836 239° Southwest 453 521 34,000  Level FlightAware ADS-B (KMIA)
04:20PM 24.9228 -77.9381 239° Southwest 459 528 34,000 -60 Level Miami Center
04:21PM 24.8550 -78.0567 238° Southwest 454 522 33,900 -300 Descending Miami Center
04:22PM 24.7914 -78.1728 239° Southwest 454 522 33,400 -480 Descending Miami Center
04:23PM 24.7275 -78.2889 239° Southwest 449 517 33,000 -240 Descending Miami Center
04:24PM 24.6594 -78.4047 237° Southwest 449 517 33,000  Level Miami Center
04:25PM 24.5975 -78.5250 240° Southwest 449 517 33,000  Level Miami Center
04:26PM 24.5208 -78.6494 236° Southwest 449 517 33,000  Level Miami Center
04:27PM 24.4608 -78.7675 241° Southwest 449 517 33,000  Level Miami Center
04:28PM 24.3947 -78.8806 237° Southwest 449 517 33,000  Level Miami Center
04:29PM 24.3303 -78.9958 238° Southwest 449 517 33,000  Level Miami Center
04:30PM 24.2639 -79.1108 238° Southwest 449 517 33,000  Level Miami Center
04:31PM 24.2017 -79.2236 239° Southwest 449 517 33,000  Level Miami Center
04:32PM 24.1414 -79.3317 239° Southwest 435 501 33,000  Level Miami Center
04:33PM 24.0811 -79.4397 239° Southwest 425 489 33,000  Level Miami Center
04:34PM 24.0164 -79.5522 238° Southwest 425 489 33,000  Level Miami Center
04:36PM 23.9053 -79.7645 240° Southwest  Level FlightAware Approximate
04:43PM 23.4494 -80.6237 243° Southwest  Level FlightAware Approximate
04:44PM 23.3909 -80.7502 243° Southwest  Level FlightAware Approximate
04:45PM 23.3249 -80.8721 239° Southwest  Level FlightAware Approximate
04:46PM 23.2575 -80.9932 239° Southwest  Level FlightAware Approximate
04:47PM 23.1915 -81.1151 241° Southwest  Level FlightAware Approximate
04:48PM 23.1274 -81.2381 240° Southwest  Level FlightAware Approximate
04:49PM 23.0632 -81.3610 240° Southwest  Level FlightAware Approximate
04:50PM 23.0167 -81.4889 270° West  Level FlightAware Approximate
04:51PM 23.0064 -81.6296 264° West  Level FlightAware Approximate
04:52PM 23.0000 -81.7704 270° West  Level FlightAware Approximate
04:53PM 23.0000 -81.9117 270° West  Level FlightAware Approximate
04:54PM 22.9892 -82.0525 264° West  Level FlightAware Approximate
04:55PM 22.9833 -82.1934 270° West  Level FlightAware Approximate
04:56PM 22.9776 -82.3341 260° West  Level FlightAware Approximate
04:57PM 22.9667 -82.4000 260° West  Level FlightAware Approximate
04:58PM 22.9891 -82.4091 260° West  Level Estimated
04:59PM 22.9891 -82.4091 260° West  Level Estimated
05:00PM 22.9891 -82.4091 260° West  Level Estimated
05:01PM 22.9891 -82.4091 260° West  Level Estimated
05:02PM 22.9891 -82.4091 260° West  Level Estimated
05:03PM 22.9891 -82.4091 260° West  Level Estimated